Time;durP1;ratioP1;P1;durP2;ratioP2;P2;SDS_P1;SDS_P2;PMS_P1;PMS_P2;Temp;Humidity;BMP_temperature;BMP_pressure;BME280_temperature;BME280_humidity;BME280_pressure;Samples;Min_cycle;Max_cycle;Signal;HPM_P1;HPM_P2
2023/11/28 00:03:01;;;;;;;60.80;41.50;;;;;;;;;;103766;1289;544902;-72
2023/11/28 00:06:39;;;;;;;60.60;41.00;;;;;;;;;;103883;1291;545593;-73
2023/11/28 00:10:15;;;;;;;57.00;37.70;;;;;;;;;;104057;1289;545063;-71
2023/11/28 00:13:53;;;;;;;57.40;36.70;;;;;;;;;;103819;1294;544979;-71
2023/11/28 00:17:31;;;;;;;52.60;36.30;;;;;;;;;;103839;1289;545919;-73
2023/11/28 00:21:08;;;;;;;56.10;37.30;;;;;;;;;;103842;1292;545538;-71
2023/11/28 00:24:46;;;;;;;52.50;35.60;;;;;;;;;;103622;1294;544844;-72
2023/11/28 00:28:25;;;;;;;52.40;34.80;;;;;;;;;;103769;1291;545010;-71
2023/11/28 00:32:00;;;;;;;52.10;35.70;;;;;;;;;;103762;1291;545090;-73
2023/11/28 00:35:38;;;;;;;55.60;36.80;;;;;;;;;;103806;1292;544810;-71
2023/11/28 00:39:16;;;;;;;56.00;36.10;;;;;;;;;;103856;1291;544749;-72
2023/11/28 00:42:53;;;;;;;50.20;34.20;;;;;;;;;;103758;1289;544942;-71
2023/11/28 00:46:30;;;;;;;51.20;31.90;;;;;;;;;;103870;1295;544747;-71
2023/11/28 00:50:08;;;;;;;49.70;34.70;;;;;;;;;;103780;1295;544957;-73
2023/11/28 00:53:45;;;;;;;52.50;35.80;;;;;;;;;;103763;1293;545406;-72
2023/11/28 00:57:23;;;;;;;54.50;36.10;;;;;;;;;;103670;1292;544962;-73
2023/11/28 01:01:00;;;;;;;51.20;33.70;;;;;;;;;;103905;1294;544830;-72
2023/11/28 01:04:38;;;;;;;48.00;32.10;;;;;;;;;;103874;1289;544971;-72
2023/11/28 01:08:15;;;;;;;49.30;32.60;;;;;;;;;;103563;1314;545348;-71
2023/11/28 01:11:53;;;;;;;53.50;35.90;;;;;;;;;;103790;1302;545407;-73
2023/11/28 01:15:33;;;;;;;50.80;34.10;;;;;;;;;;103822;1290;544759;-72
2023/11/28 01:19:07;;;;;;;50.30;32.50;;;;;;;;;;103827;1289;545557;-71
2023/11/28 01:22:45;;;;;;;45.40;31.20;;;;;;;;;;104064;1289;545807;-71
2023/11/28 01:26:22;;;;;;;47.30;31.60;;;;;;;;;;104029;1288;545926;-71
2023/11/28 01:30:02;;;;;;;51.30;34.40;;;;;;;;;;103828;1291;546147;-72
2023/11/28 01:33:38;;;;;;;48.80;31.30;;;;;;;;;;104150;1285;545085;-71
2023/11/28 01:37:18;;;;;;;42.70;28.50;;;;;;;;;;104247;1285;544975;-72
2023/11/28 01:40:52;;;;;;;43.30;28.30;;;;;;;;;;103801;1291;544778;-72
2023/11/28 01:44:30;;;;;;;45.40;29.90;;;;;;;;;;103786;1292;545024;-72
2023/11/28 01:48:07;;;;;;;45.30;30.90;;;;;;;;;;103813;1292;544990;-71
2023/11/28 01:51:45;;;;;;;44.70;29.30;;;;;;;;;;103860;1294;544806;-72
2023/11/28 01:55:22;;;;;;;41.60;27.60;;;;;;;;;;103798;1292;545781;-72
2023/11/28 01:59:01;;;;;;;39.50;26.30;;;;;;;;;;103578;1294;545002;-73
2023/11/28 02:02:37;;;;;;;39.60;27.70;;;;;;;;;;103583;1298;544747;-74
2023/11/28 02:06:15;;;;;;;41.50;28.90;;;;;;;;;;103899;1289;545146;-73
2023/11/28 02:09:52;;;;;;;42.70;27.80;;;;;;;;;;104502;1282;545003;-72
2023/11/28 02:13:33;;;;;;;38.70;25.90;;;;;;;;;;103898;1292;545037;-75
2023/11/28 02:17:07;;;;;;;36.40;24.80;;;;;;;;;;104229;1286;544918;-73
2023/11/28 02:20:47;;;;;;;40.60;27.30;;;;;;;;;;103809;1289;544769;-72
2023/11/28 02:24:22;;;;;;;44.20;29.50;;;;;;;;;;103780;1289;544768;-72
2023/11/28 02:27:59;;;;;;;37.80;25.30;;;;;;;;;;103780;1291;544977;-73
2023/11/28 02:31:37;;;;;;;35.70;24.10;;;;;;;;;;103867;1288;544878;-71
2023/11/28 02:35:14;;;;;;;37.60;26.50;;;;;;;;;;103673;1291;546274;-72
2023/11/28 02:38:52;;;;;;;39.50;27.50;;;;;;;;;;104118;1289;544987;-72
2023/11/28 02:42:30;;;;;;;41.50;27.20;;;;;;;;;;103815;1292;545460;-73
2023/11/28 02:46:07;;;;;;;37.70;25.70;;;;;;;;;;104107;1286;545102;-72
2023/11/28 02:49:40;;;;;;;36.00;24.60;;;;;;;;;;104058;1290;544728;-73
2023/11/28 02:53:22;;;;;;;39.00;27.00;;;;;;;;;;103640;1294;545077;-73
2023/11/28 02:56:59;;;;;;;42.40;29.60;;;;;;;;;;103834;1289;544873;-73
2023/11/28 03:00:37;;;;;;;41.70;28.30;;;;;;;;;;103784;1291;546096;-74
2023/11/28 03:04:14;;;;;;;40.50;27.20;;;;;;;;;;103986;1289;544954;-78
2023/11/28 03:07:53;;;;;;;39.70;26.40;;;;;;;;;;104134;1285;545509;-72
2023/11/28 03:11:29;;;;;;;41.10;28.70;;;;;;;;;;104133;1290;544836;-75
2023/11/28 03:15:06;;;;;;;43.60;29.40;;;;;;;;;;103872;1291;545943;-73
2023/11/28 03:18:44;;;;;;;42.90;27.90;;;;;;;;;;104148;1285;545273;-73
2023/11/28 03:22:21;;;;;;;40.10;27.10;;;;;;;;;;103601;1297;545471;-75
2023/11/28 03:25:58;;;;;;;41.70;29.20;;;;;;;;;;103833;1291;544959;-73
2023/11/28 03:29:36;;;;;;;43.60;30.60;;;;;;;;;;103796;1291;546270;-73
2023/11/28 03:33:14;;;;;;;44.40;30.50;;;;;;;;;;103813;1303;544864;-77
2023/11/28 03:36:52;;;;;;;43.00;28.60;;;;;;;;;;103737;1293;545218;-74
2023/11/28 03:40:28;;;;;;;44.30;29.80;;;;;;;;;;103811;1295;544886;-73
2023/11/28 03:44:06;;;;;;;47.10;32.10;;;;;;;;;;103545;1298;544769;-73
2023/11/28 03:47:43;;;;;;;50.80;34.90;;;;;;;;;;103587;1295;545158;-73
2023/11/28 03:51:31;;;;;;;47.20;32.60;;;;;;;;;;104051;1287;544935;-73
2023/11/28 03:54:58;;;;;;;44.20;29.10;;;;;;;;;;103593;1293;544905;-73
2023/11/28 03:58:36;;;;;;;47.00;31.60;;;;;;;;;;103835;1289;545662;-73
2023/11/28 04:02:15;;;;;;;50.70;33.30;;;;;;;;;;103906;1294;545342;-77
2023/11/28 04:05:51;;;;;;;48.20;31.80;;;;;;;;;;104533;1282;545695;-77
2023/11/28 04:09:29;;;;;;;44.40;30.00;;;;;;;;;;103823;1291;544996;-73
2023/11/28 04:13:06;;;;;;;47.90;29.90;;;;;;;;;;103748;1289;544975;-76
2023/11/28 04:16:45;;;;;;;46.30;30.90;;;;;;;;;;103691;1292;545306;-74
2023/11/28 04:20:21;;;;;;;48.00;32.80;;;;;;;;;;103749;1292;545863;-75
2023/11/28 04:23:59;;;;;;;47.20;30.90;;;;;;;;;;103863;1292;544777;-74
2023/11/28 04:27:36;;;;;;;44.50;29.60;;;;;;;;;;103876;1292;545379;-73
2023/11/28 04:31:20;;;;;;;46.20;31.80;;;;;;;;;;103877;1288;549072;-74
2023/11/28 04:34:52;;;;;;;47.20;32.90;;;;;;;;;;103662;1292;544955;-74
2023/11/28 04:38:29;;;;;;;46.50;31.70;;;;;;;;;;103645;1291;544758;-73
2023/11/28 04:42:07;;;;;;;45.10;29.10;;;;;;;;;;103760;1291;544811;-73
2023/11/28 04:45:43;;;;;;;43.40;28.60;;;;;;;;;;103548;1297;544996;-74
2023/11/28 04:49:23;;;;;;;47.20;31.50;;;;;;;;;;103723;1295;545562;-73
2023/11/28 04:52:59;;;;;;;47.10;32.60;;;;;;;;;;103794;1290;545176;-74
2023/11/28 04:56:35;;;;;;;48.90;32.20;;;;;;;;;;103850;1289;545484;-74
2023/11/28 05:00:13;;;;;;;47.80;30.70;;;;;;;;;;103800;1292;545101;-75
2023/11/28 05:03:51;;;;;;;50.70;33.30;;;;;;;;;;103602;1295;545066;-74
2023/11/28 05:07:30;;;;;;;50.40;33.90;;;;;;;;;;104040;1286;545681;-74
2023/11/28 05:11:05;;;;;;;50.50;34.50;;;;;;;;;;104369;1283;544708;-74
2023/11/28 05:14:53;;;;;;;47.60;31.90;;;;;;;;;;104068;1288;545156;-74
2023/11/28 05:18:16;;;;;;;45.40;30.10;;;;;;;;;;104015;1293;545004;-75
2023/11/28 05:21:58;;;;;;;49.70;33.30;;;;;;;;;;103894;1288;545649;-73
2023/11/28 05:25:37;;;;;;;50.60;35.00;;;;;;;;;;103894;1295;544736;-73
2023/11/28 05:29:13;;;;;;;49.40;32.60;;;;;;;;;;103807;1295;545007;-74
2023/11/28 05:32:50;;;;;;;46.80;30.50;;;;;;;;;;104086;1291;545077;-75
2023/11/28 05:36:32;;;;;;;48.10;32.00;;;;;;;;;;103784;1289;544995;-78
2023/11/28 05:40:07;;;;;;;49.60;33.10;;;;;;;;;;103587;1295;544988;-75
2023/11/28 05:43:44;;;;;;;43.00;28.40;;;;;;;;;;103756;1291;545484;-74
2023/11/28 05:47:20;;;;;;;42.60;28.20;;;;;;;;;;103647;1292;544993;-74
2023/11/28 05:50:59;;;;;;;43.60;29.00;;;;;;;;;;103788;1290;545026;-75
2023/11/28 05:54:37;;;;;;;45.00;31.10;;;;;;;;;;103834;1292;544796;-75
2023/11/28 05:58:13;;;;;;;43.70;29.00;;;;;;;;;;103917;1289;544813;-74
2023/11/28 06:02:10;;;;;;;40.10;26.90;;;;;;;;;;103845;1290;545022;-74
2023/11/28 06:05:32;;;;;;;38.70;25.60;;;;;;;;;;103785;1292;545106;-75
2023/11/28 06:09:06;;;;;;;41.60;27.80;;;;;;;;;;103807;1289;545003;-74
2023/11/28 06:12:43;;;;;;;38.90;25.70;;;;;;;;;;103767;1292;544799;-74
2023/11/28 06:16:19;;;;;;;38.10;24.20;;;;;;;;;;103759;1293;544787;-74
2023/11/28 06:20:15;;;;;;;39.00;24.30;;;;;;;;;;104339;1283;544901;-74
2023/11/28 06:23:34;;;;;;;38.00;26.40;;;;;;;;;;103592;1293;544981;-75
2023/11/28 06:27:17;;;;;;;35.20;22.90;;;;;;;;;;103659;1292;544860;-74
2023/11/28 06:30:51;;;;;;;36.50;22.90;;;;;;;;;;103717;1292;545930;-78
2023/11/28 06:34:48;;;;;;;38.40;22.60;;;;;;;;;;103669;1292;546811;-75
2023/11/28 06:38:05;;;;;;;36.30;24.90;;;;;;;;;;104600;1286;545035;-74
2023/11/28 06:41:45;;;;;;;37.70;24.30;;;;;;;;;;103621;1295;544896;-76
2023/11/28 06:45:18;;;;;;;34.80;24.30;;;;;;;;;;103950;1301;544712;-76
2023/11/28 06:48:57;;;;;;;33.00;21.70;;;;;;;;;;103837;1290;544895;-75
2023/11/28 06:52:36;;;;;;;34.80;21.00;;;;;;;;;;103936;1289;544681;-76
2023/11/28 06:56:31;;;;;;;41.10;23.30;;;;;;;;;;103717;1295;547578;-76
2023/11/28 07:00:08;;;;;;;42.00;25.00;;;;;;;;;;103646;1291;545192;-75
2023/11/28 07:03:36;;;;;;;35.70;22.00;;;;;;;;;;103731;1292;547786;-78
2023/11/28 07:07:10;;;;;;;35.20;22.40;;;;;;;;;;104267;1286;546825;-74
2023/11/28 07:10:43;;;;;;;35.30;22.90;;;;;;;;;;103740;1289;545753;-76
2023/11/28 07:14:21;;;;;;;40.00;24.30;;;;;;;;;;103727;1292;545197;-75
2023/11/28 07:18:20;;;;;;;38.40;23.50;;;;;;;;;;103644;1295;545150;-76
2023/11/28 07:21:34;;;;;;;39.60;22.40;;;;;;;;;;103472;1295;545161;-75
2023/11/28 07:25:24;;;;;;;38.00;21.50;;;;;;;;;;103892;1292;545775;-76
2023/11/28 07:29:06;;;;;;;36.20;23.40;;;;;;;;;;103776;1292;545058;-75
2023/11/28 07:32:26;;;;;;;39.50;23.30;;;;;;;;;;103841;1289;545144;-76
2023/11/28 07:36:28;;;;;;;37.10;23.20;;;;;;;;;;104111;1285;545720;-77
2023/11/28 07:39:42;;;;;;;35.10;21.50;;;;;;;;;;103664;1295;544764;-75
2023/11/28 07:43:19;;;;;;;34.30;20.40;;;;;;;;;;103842;1288;545495;-77
2023/11/28 07:47:08;;;;;;;36.00;22.20;;;;;;;;;;103710;1290;546280;-76
2023/11/28 07:50:34;;;;;;;37.80;22.40;;;;;;;;;;103800;1292;545396;-74
2023/11/28 08:08:08;;;;;;;42.90;28.90;;;;;;;;;;103727;1294;549159;-79
2023/11/28 08:12:14;;;;;;;;;;;;;;;;;;;;;
2023/11/28 08:19:25;;;;;;;33.40;25.20;;;;;;;;;;103575;1296;545382;-79
2023/11/28 08:22:51;;;;;;;38.80;28.60;;;;;;;;;;104112;1285;545415;-77
2023/11/28 08:26:35;;;;;;;39.00;29.40;;;;;;;;;;103689;1290;545442;-78
2023/11/28 08:30:26;;;;;;;38.90;31.50;;;;;;;;;;103634;1296;546343;-78
2023/11/28 08:33:56;;;;;;;37.20;29.10;;;;;;;;;;103799;1295;545275;-82
2023/11/28 08:37:39;;;;;;;47.40;42.40;;;;;;;;;;103678;1290;545581;-77
2023/11/28 08:41:00;;;;;;;60.00;53.60;;;;;;;;;;103599;1292;545226;-77
2023/11/28 08:44:42;;;;;;;47.40;42.00;;;;;;;;;;103621;1292;548015;-78
2023/11/28 08:48:22;;;;;;;43.20;37.70;;;;;;;;;;103541;1295;547805;-79
2023/11/28 08:52:41;;;;;;;50.30;45.00;;;;;;;;;;103819;1289;548277;-78
2023/11/28 08:55:50;;;;;;;73.10;65.50;;;;;;;;;;103752;1291;546564;-77
2023/11/28 08:59:27;;;;;;;41.70;35.10;;;;;;;;;;103650;1297;545256;-78
2023/11/28 09:02:40;;;;;;;48.90;39.60;;;;;;;;;;103930;1300;545758;-76
2023/11/28 09:06:23;;;;;;;56.40;50.20;;;;;;;;;;103647;1291;547909;-78
2023/11/28 09:10:30;;;;;;;52.70;43.60;;;;;;;;;;103729;1297;545239;-78
2023/11/28 09:13:53;;;;;;;44.80;38.30;;;;;;;;;;103670;1291;545931;-80
2023/11/28 09:17:30;;;;;;;34.10;29.60;;;;;;;;;;103834;1295;549889;-80
2023/11/28 09:21:00;;;;;;;42.90;37.50;;;;;;;;;;103904;1291;547967;-80
2023/11/28 09:24:58;;;;;;;;;;;;;;;;;;;;;
2023/11/28 09:28:34;;;;;;;42.80;35.90;;;;;;;;;;103709;1290;548180;-78
2023/11/28 09:32:02;;;;;;;31.00;25.10;;;;;;;;;;103666;1290;548060;-78
2023/11/28 09:35:44;;;;;;;41.20;36.30;;;;;;;;;;103827;1292;547730;-77
2023/11/28 09:39:31;;;;;;;46.50;38.60;;;;;;;;;;103642;1294;545267;-83
2023/11/28 09:42:56;;;;;;;60.60;51.00;;;;;;;;;;103627;1291;547904;-81
2023/11/28 09:46:56;;;;;;;52.70;46.10;;;;;;;;;;104028;1293;545256;-83
2023/11/28 09:50:05;;;;;;;41.20;35.10;;;;;;;;;;103746;1289;544917;-79
2023/11/28 09:54:10;;;;;;;51.70;39.30;;;;;;;;;;103545;1293;545245;-79
2023/11/28 09:57:20;;;;;;;38.40;27.80;;;;;;;;;;103961;1289;545773;-78
2023/11/28 10:01:23;;;;;;;35.40;23.70;;;;;;;;;;104332;1285;545450;-78
2023/11/28 10:04:42;;;;;;;25.30;17.90;;;;;;;;;;103580;1305;545552;-79
2023/11/28 10:08:36;;;;;;;26.10;18.50;;;;;;;;;;103809;1292;545558;-77
2023/11/28 10:12:17;;;;;;;25.00;16.70;;;;;;;;;;103544;1295;544832;-78
2023/11/28 10:15:54;;;;;;;21.90;14.40;;;;;;;;;;103574;1296;545618;-78
2023/11/28 10:19:40;;;;;;;;;;;;;;;;;;;;;
2023/11/28 10:23:16;;;;;;;37.40;22.80;;;;;;;;;;103593;1296;545333;-81
2023/11/28 10:27:01;;;;;;;29.20;17.50;;;;;;;;;;104544;1282;545739;-78
2023/11/28 10:30:55;;;;;;;25.70;16.30;;;;;;;;;;103872;1295;545246;-79
2023/11/28 10:34:39;;;;;;;24.60;15.50;;;;;;;;;;103738;1298;546390;-79
2023/11/28 10:38:19;;;;;;;26.80;17.40;;;;;;;;;;103435;1295;545242;-79
2023/11/28 10:41:32;;;;;;;27.40;17.30;;;;;;;;;;103715;1291;545652;-77
2023/11/28 10:45:10;;;;;;;28.40;18.00;;;;;;;;;;104096;1288;544908;-77
2023/11/28 10:49:15;;;;;;;47.50;25.30;;;;;;;;;;103681;1294;547610;-77
2023/11/28 10:52:27;;;;;;;61.70;31.10;;;;;;;;;;103993;1289;544921;-79
2023/11/28 10:56:13;;;;;;;33.20;20.30;;;;;;;;;;103959;1292;545306;-77
2023/11/28 11:00:09;;;;;;;32.30;18.90;;;;;;;;;;104007;1291;550070;-80
2023/11/28 11:03:41;;;;;;;34.60;20.60;;;;;;;;;;103410;1297;545244;-82
2023/11/28 11:07:28;;;;;;;50.70;28.30;;;;;;;;;;104037;1293;546834;-79
2023/11/28 11:11:01;;;;;;;34.00;20.10;;;;;;;;;;103749;1298;545264;-80
2023/11/28 11:14:18;;;;;;;40.00;25.50;;;;;;;;;;103868;1291;545468;-79
2023/11/28 11:18:15;;;;;;;49.40;29.20;;;;;;;;;;103859;1289;548692;-78
2023/11/28 11:21:23;;;;;;;92.10;54.30;;;;;;;;;;104602;1283;545406;-78
2023/11/28 11:25:29;;;;;;;34.70;20.40;;;;;;;;;;103803;1292;546933;-77
2023/11/28 11:29:01;;;;;;;72.20;46.90;;;;;;;;;;103351;1297;544988;-78
2023/11/28 11:33:05;;;;;;;76.50;37.40;;;;;;;;;;103699;1294;547895;-80
2023/11/28 11:36:13;;;;;;;54.80;30.50;;;;;;;;;;103785;1295;544960;-78
2023/11/28 11:40:14;;;;;;;46.80;23.60;;;;;;;;;;103841;1297;545221;-81
2023/11/28 11:43:38;;;;;;;78.90;37.90;;;;;;;;;;103925;1295;545505;-84
2023/11/28 11:47:17;;;;;;;34.00;19.50;;;;;;;;;;103731;1292;545988;-78
2023/11/28 11:51:08;;;;;;;53.30;32.00;;;;;;;;;;103626;1297;547995;-78
2023/11/28 11:54:16;;;;;;;49.20;28.00;;;;;;;;;;103551;1295;544998;-77
2023/11/28 11:58:28;;;;;;;25.80;15.50;;;;;;;;;;103598;1296;547993;-80
2023/11/28 12:01:52;;;;;;;32.60;23.00;;;;;;;;;;103728;1288;546096;-78
2023/11/28 12:05:24;;;;;;;40.00;31.20;;;;;;;;;;103614;1294;545589;-80
2023/11/28 12:08:58;;;;;;;29.90;19.70;;;;;;;;;;104249;1289;549151;-78
2023/11/28 12:12:50;;;;;;;25.40;15.90;;;;;;;;;;103637;1291;548079;-78
2023/11/28 12:16:34;;;;;;;;;;;;;;;;;;;;;
2023/11/28 12:20:33;;;;;;;28.80;22.20;;;;;;;;;;103730;1298;545682;-77
2023/11/28 12:23:22;;;;;;;26.80;19.50;;;;;;;;;;103634;1291;548543;-80
2023/11/28 12:27:07;;;;;;;30.10;18.10;;;;;;;;;;103468;1297;545438;-83
2023/11/28 12:30:48;;;;;;;21.70;12.60;;;;;;;;;;103512;1297;547768;-81
2023/11/28 12:34:28;;;;;;;20.80;13.30;;;;;;;;;;103572;1294;545431;-81
2023/11/28 12:38:15;;;;;;;21.30;14.90;;;;;;;;;;103566;1297;545245;-82
2023/11/28 12:42:02;;;;;;;25.10;16.20;;;;;;;;;;103745;1296;545551;-81
2023/11/28 12:45:51;;;;;;;22.50;13.80;;;;;;;;;;104129;1288;545255;-78
2023/11/28 12:49:06;;;;;;;19.80;14.50;;;;;;;;;;103996;1290;545207;-80
2023/11/28 12:53:08;;;;;;;39.10;28.10;;;;;;;;;;103415;1300;549165;-78
2023/11/28 12:56:21;;;;;;;28.70;20.00;;;;;;;;;;103406;1304;548009;-79
2023/11/28 13:00:04;;;;;;;27.80;18.50;;;;;;;;;;103436;1297;548019;-77
2023/11/28 13:03:44;;;;;;;;;;;;;;;;;;;;;
2023/11/28 13:07:36;;;;;;;26.60;19.10;;;;;;;;;;103712;1297;545375;-80
2023/11/28 13:11:01;;;;;;;26.60;18.10;;;;;;;;;;103764;1297;545230;-77
2023/11/28 13:14:26;;;;;;;27.30;17.50;;;;;;;;;;103682;1291;545579;-78
2023/11/28 13:18:05;;;;;;;81.10;46.30;;;;;;;;;;104409;1283;544851;-80
2023/11/28 13:22:05;;;;;;;279.00;122.80;;;;;;;;;;103597;1294;547817;-80
2023/11/28 13:26:10;;;;;;;127.40;56.80;;;;;;;;;;103645;1304;546054;-84
2023/11/28 13:30:06;;;;;;;107.10;54.10;;;;;;;;;;103499;1297;545566;-79
2023/11/28 13:33:22;;;;;;;104.40;50.70;;;;;;;;;;103642;1291;549264;-80
2023/11/28 13:37:15;;;;;;;129.30;51.20;;;;;;;;;;103632;1291;545576;-80
2023/11/28 13:41:10;;;;;;;129.00;49.40;;;;;;;;;;103514;1304;546344;-78
2023/11/28 13:44:21;;;;;;;101.20;40.80;;;;;;;;;;103566;1292;545559;-78
2023/11/28 13:48:14;;;;;;;86.60;36.20;;;;;;;;;;103539;1297;545358;-77
2023/11/28 13:52:01;;;;;;;88.70;39.40;;;;;;;;;;103552;1292;546731;-80
2023/11/28 13:55:11;;;;;;;42.40;22.80;;;;;;;;;;103510;1292;545233;-79
2023/11/28 13:59:10;;;;;;;60.00;29.30;;;;;;;;;;103642;1292;545228;-78
2023/11/28 14:02:30;;;;;;;42.60;22.50;;;;;;;;;;103779;1296;545639;-77
2023/11/28 14:06:28;;;;;;;47.70;24.60;;;;;;;;;;103518;1301;545603;-81
2023/11/28 14:13:32;;;;;;;56.70;29.40;;;;;;;;;;103617;1292;545802;-77
2023/11/28 14:17:37;;;;;;;59.50;33.80;;;;;;;;;;103594;1297;545391;-78
2023/11/28 14:20:53;;;;;;;49.30;29.60;;;;;;;;;;103454;1294;545598;-78
2023/11/28 14:24:31;;;;;;;145.20;80.70;;;;;;;;;;103625;1292;549052;-78
2023/11/28 14:28:11;;;;;;;96.80;56.90;;;;;;;;;;103664;1293;548051;-78
2023/11/28 14:32:06;;;;;;;33.50;23.70;;;;;;;;;;104039;1291;545239;-80
2023/11/28 14:35:39;;;;;;;27.10;19.00;;;;;;;;;;103825;1288;545574;-78
2023/11/28 14:39:21;;;;;;;29.20;20.10;;;;;;;;;;103444;1292;545405;-80
2023/11/28 14:42:53;;;;;;;28.80;20.20;;;;;;;;;;104544;1282;544954;-77
2023/11/28 14:46:26;;;;;;;28.10;18.50;;;;;;;;;;103602;1292;545402;-78
2023/11/28 14:49:50;;;;;;;48.50;36.90;;;;;;;;;;103728;1301;546023;-79
2023/11/28 14:53:45;;;;;;;43.20;30.90;;;;;;;;;;103618;1292;545362;-77
2023/11/28 14:57:21;;;;;;;35.20;23.70;;;;;;;;;;103809;1292;544973;-78
2023/11/28 15:01:06;;;;;;;32.20;21.10;;;;;;;;;;103457;1293;546773;-80
2023/11/28 15:04:44;;;;;;;61.90;37.90;;;;;;;;;;103653;1294;545405;-77
2023/11/28 15:07:56;;;;;;;47.90;29.20;;;;;;;;;;103705;1294;550286;-79
2023/11/28 15:12:03;;;;;;;;;;;;;;;;;;;;;
2023/11/28 15:15:33;;;;;;;38.00;25.20;;;;;;;;;;103528;1296;545270;-81
2023/11/28 15:19:06;;;;;;;35.30;22.80;;;;;;;;;;103782;1289;545207;-81
2023/11/28 15:22:52;;;;;;;35.90;21.10;;;;;;;;;;104068;1288;545182;-79
2023/11/28 15:26:38;;;;;;;32.10;20.70;;;;;;;;;;103720;1289;545128;-77
2023/11/28 15:30:28;;;;;;;;;;;;;;;;;;;;;
2023/11/28 15:33:39;;;;;;;43.60;28.30;;;;;;;;;;103851;1289;547890;-77
2023/11/28 15:37:30;;;;;;;;;;;;;;;;;;;;;
2023/11/28 15:41:12;;;;;;;33.00;20.80;;;;;;;;;;103694;1295;545497;-77
2023/11/28 15:44:27;;;;;;;35.10;21.90;;;;;;;;;;103714;1289;544859;-78
2023/11/28 15:48:26;;;;;;;46.70;28.10;;;;;;;;;;104497;1288;545637;-78
2023/11/28 15:52:04;;;;;;;48.00;30.50;;;;;;;;;;103656;1292;544720;-77
2023/11/28 15:55:35;;;;;;;44.40;27.30;;;;;;;;;;103481;1298;545357;-78
2023/11/28 15:59:19;;;;;;;41.30;25.10;;;;;;;;;;103582;1298;545706;-77
2023/11/28 16:02:35;;;;;;;40.50;26.70;;;;;;;;;;103823;1289;544714;-78
2023/11/28 16:06:26;;;;;;;43.90;28.00;;;;;;;;;;103599;1298;545075;-78
2023/11/28 16:10:20;;;;;;;43.80;28.50;;;;;;;;;;103628;1295;546247;-77
2023/11/28 16:13:34;;;;;;;46.60;28.10;;;;;;;;;;104086;1290;546154;-77
2023/11/28 16:17:36;;;;;;;45.60;28.30;;;;;;;;;;103660;1292;544858;-77
2023/11/28 16:20:44;;;;;;;43.40;26.40;;;;;;;;;;103751;1289;544901;-77
2023/11/28 16:24:48;;;;;;;47.30;29.90;;;;;;;;;;103680;1294;547497;-80
2023/11/28 16:28:42;;;;;;;51.10;31.60;;;;;;;;;;103519;1298;545793;-77
2023/11/28 16:32:25;;;;;;;50.80;31.00;;;;;;;;;;103707;1295;545190;-76
2023/11/28 16:35:47;;;;;;;47.60;28.70;;;;;;;;;;103685;1292;545115;-76
2023/11/28 16:39:19;;;;;;;47.40;27.10;;;;;;;;;;103523;1294;544953;-78
2023/11/28 16:43:18;;;;;;;45.20;28.10;;;;;;;;;;103746;1292;546545;-77
2023/11/28 16:46:47;;;;;;;45.70;28.10;;;;;;;;;;103253;1300;545251;-77
2023/11/28 16:50:33;;;;;;;64.00;37.50;;;;;;;;;;103689;1292;545497;-76
2023/11/28 16:54:27;;;;;;;58.30;35.40;;;;;;;;;;103630;1293;545365;-77
2023/11/28 16:58:01;;;;;;;58.90;35.00;;;;;;;;;;103609;1292;545340;-75
2023/11/28 17:01:26;;;;;;;51.50;32.20;;;;;;;;;;103833;1292;545437;-76
2023/11/28 17:05:26;;;;;;;56.30;35.80;;;;;;;;;;104229;1300;545896;-79
2023/11/28 17:08:59;;;;;;;43.70;27.70;;;;;;;;;;103539;1291;547908;-77
2023/11/28 17:12:31;;;;;;;44.50;27.00;;;;;;;;;;103668;1289;545072;-76
2023/11/28 17:16:17;;;;;;;51.70;32.10;;;;;;;;;;103619;1291;546073;-76
2023/11/28 17:20:08;;;;;;;47.10;29.50;;;;;;;;;;103820;1294;547805;-78
2023/11/28 17:23:24;;;;;;;45.30;28.50;;;;;;;;;;103616;1291;545162;-76
2023/11/28 17:27:24;;;;;;;45.30;28.50;;;;;;;;;;103566;1291;545878;-77
2023/11/28 17:30:59;;;;;;;41.60;26.20;;;;;;;;;;103853;1291;548003;-76
2023/11/28 17:34:56;;;;;;;38.70;24.90;;;;;;;;;;103837;1294;545193;-78
2023/11/28 17:38:33;;;;;;;43.30;27.00;;;;;;;;;;103812;1304;545689;-76
2023/11/28 17:42:00;;;;;;;40.90;25.00;;;;;;;;;;103772;1300;545118;-77
2023/11/28 17:45:12;;;;;;;37.20;23.90;;;;;;;;;;103795;1288;545573;-76
2023/11/28 17:49:15;;;;;;;40.40;25.30;;;;;;;;;;103686;1295;545202;-76
2023/11/28 17:52:47;;;;;;;39.90;25.40;;;;;;;;;;103787;1291;545072;-76
2023/11/28 17:56:11;;;;;;;42.20;27.30;;;;;;;;;;103714;1292;545453;-76
2023/11/28 17:59:46;;;;;;;36.90;23.10;;;;;;;;;;103835;1289;545297;-76
2023/11/28 18:03:46;;;;;;;39.30;24.50;;;;;;;;;;104272;1284;544794;-76
2023/11/28 18:07:40;;;;;;;45.00;30.60;;;;;;;;;;103569;1295;545642;-76
2023/11/28 18:11:10;;;;;;;52.30;34.20;;;;;;;;;;103662;1288;545233;-76
2023/11/28 18:14:27;;;;;;;46.20;31.20;;;;;;;;;;103715;1292;544976;-76
2023/11/28 18:18:04;;;;;;;42.50;27.00;;;;;;;;;;103783;1291;545011;-76
2023/11/28 18:21:45;;;;;;;41.80;25.90;;;;;;;;;;103686;1291;545631;-76
2023/11/28 18:25:16;;;;;;;45.70;28.00;;;;;;;;;;104165;1283;545707;-77
2023/11/28 18:28:55;;;;;;;43.10;29.60;;;;;;;;;;103726;1292;545333;-76
2023/11/28 18:32:52;;;;;;;46.00;31.80;;;;;;;;;;103671;1292;545483;-77
2023/11/28 18:39:43;;;;;;;41.10;25.70;;;;;;;;;;103949;1292;545022;-76
2023/11/28 18:43:47;;;;;;;46.50;30.40;;;;;;;;;;104133;1290;545271;-76
2023/11/28 18:47:24;;;;;;;50.80;33.90;;;;;;;;;;103579;1295;545539;-75
2023/11/28 18:50:41;;;;;;;64.50;40.40;;;;;;;;;;104234;1283;545491;-76
2023/11/28 18:54:22;;;;;;;62.90;35.70;;;;;;;;;;103982;1288;544956;-76
2023/11/28 18:57:55;;;;;;;58.20;33.80;;;;;;;;;;103783;1295;545187;-76
2023/11/28 19:01:40;;;;;;;57.40;35.50;;;;;;;;;;103967;1288;549512;-75
2023/11/28 19:05:32;;;;;;;56.20;35.80;;;;;;;;;;103784;1288;544992;-76
2023/11/28 19:08:55;;;;;;;55.60;34.10;;;;;;;;;;103662;1295;547946;-75
2023/11/28 19:12:35;;;;;;;58.00;34.40;;;;;;;;;;103852;1292;548015;-75
2023/11/28 19:16:07;;;;;;;54.00;33.20;;;;;;;;;;103744;1292;545829;-75
2023/11/28 19:19:39;;;;;;;63.00;37.40;;;;;;;;;;103680;1292;545043;-74
2023/11/28 19:23:24;;;;;;;72.60;42.20;;;;;;;;;;104377;1282;549131;-75
2023/11/28 19:26:58;;;;;;;72.50;42.80;;;;;;;;;;103566;1295;544956;-75
2023/11/28 19:30:39;;;;;;;81.80;44.60;;;;;;;;;;103622;1292;547244;-74
2023/11/28 19:34:08;;;;;;;81.50;45.10;;;;;;;;;;103728;1289;545708;-76
2023/11/28 19:37:48;;;;;;;86.60;47.10;;;;;;;;;;104053;1288;545103;-74
2023/11/28 19:41:51;;;;;;;86.90;47.40;;;;;;;;;;103809;1295;545386;-76
2023/11/28 19:45:06;;;;;;;83.30;44.90;;;;;;;;;;103732;1292;545252;-75
2023/11/28 19:48:40;;;;;;;87.70;47.00;;;;;;;;;;103778;1288;545474;-74
2023/11/28 19:52:18;;;;;;;75.80;40.80;;;;;;;;;;103586;1294;545821;-75
2023/11/28 19:56:00;;;;;;;81.90;45.20;;;;;;;;;;103729;1296;545367;-75
2023/11/28 19:59:42;;;;;;;97.50;53.70;;;;;;;;;;103661;1289;544920;-75
2023/11/28 20:03:33;;;;;;;91.00;51.20;;;;;;;;;;103589;1295;547924;-75
2023/11/28 20:06:50;;;;;;;81.40;48.30;;;;;;;;;;103771;1291;545209;-74
2023/11/28 20:10:44;;;;;;;56.40;35.70;;;;;;;;;;103722;1292;545510;-78
2023/11/28 20:14:02;;;;;;;49.60;32.60;;;;;;;;;;103762;1289;544928;-75
2023/11/28 20:17:46;;;;;;;56.40;35.00;;;;;;;;;;103858;1292;548346;-76
2023/11/28 20:21:20;;;;;;;60.30;34.20;;;;;;;;;;103684;1292;544849;-75
2023/11/28 20:24:52;;;;;;;52.20;31.40;;;;;;;;;;103815;1293;545507;-75
2023/11/28 20:28:36;;;;;;;50.60;31.30;;;;;;;;;;103669;1292;547745;-74
2023/11/28 20:32:11;;;;;;;46.90;29.60;;;;;;;;;;103652;1292;545211;-75
2023/11/28 20:35:51;;;;;;;51.00;31.40;;;;;;;;;;103770;1292;546330;-76
2023/11/28 20:39:44;;;;;;;58.00;34.20;;;;;;;;;;103908;1294;545331;-76
2023/11/28 20:43:22;;;;;;;50.60;29.80;;;;;;;;;;103684;1294;547796;-77
2023/11/28 20:46:42;;;;;;;48.70;30.40;;;;;;;;;;103842;1289;544954;-75
2023/11/28 20:50:21;;;;;;;52.50;32.80;;;;;;;;;;103753;1295;545938;-75
2023/11/28 20:54:14;;;;;;;44.10;29.20;;;;;;;;;;103692;1297;545828;-76
2023/11/28 20:57:50;;;;;;;44.60;27.30;;;;;;;;;;103390;1297;546477;-78
2023/11/28 21:01:09;;;;;;;44.60;27.80;;;;;;;;;;103864;1289;544879;-77
2023/11/28 21:04:46;;;;;;;51.70;31.80;;;;;;;;;;103721;1289;545011;-77
2023/11/28 21:08:23;;;;;;;49.70;28.10;;;;;;;;;;103703;1293;546348;-76
2023/11/28 21:12:20;;;;;;;43.30;27.00;;;;;;;;;;103827;1294;547948;-78